Strona główna
METAR-TAF:

METAR-TAF

Lotnisko :

Port lotniczy Burdż al-Arab

Aleksandria-Borg El Arab, Egipt

Szerokość geograficzna: 31-31N, Długość geograficzna: 030-10E, wysokość: 54 m

Aktualna obserwacja pogody

Raport powstał 48 minut temu, godzina 00:00 UTC
Wiatr 8 kt od południe
Temperatura 20°C
Wilgotność 49%
Ciśnienie 1005 hPa
Widzialność 10 km lub więcej
Mało chmury na wysokości 2000 ft

METAR: HEBA 050000Z 17008KT 9999 FEW020 20/09 Q1005 NOSIG

czas: 02:48 (00:48 UTC)

Prognoza

Raport powstał 1 godzina i 7 minut temu, godzina 23:41 UTC
Prognoza ważna od 05 godzina 00 UTC do 06 godzina 06 UTC
Wiatr 13 kt od południe
Widzialność: 6000 m
Przejściowo
od 05 godzina 00 UTC do 05 godzina 03 UTC
Widzialność: 3000 m
piasek
Stopniowe zmiany
od 05 godzina 04 UTC do 05 godzina 06 UTC
Wiatr 13 kt od zachodnio-północny zachód
Widzialność 10 km lub więcej
Brak chmur poniżej 1500 m i brak chmur cumulonimbus

TAF: HEBA 042341Z 0500/0606 19013KT 6000 NSC TEMPO 0500/0503 3000 SA BECMG 0504/0506 30013KT CAVOK

Obserwacja i prognoza pogody dla ponad 4000 lotnisk (raport METAR i TAF).

Dostępne stacje oznaczono żółtymi i czerwonymi punktami na mapie.

Najedź kursorem aby zobaczyć nazwę stacji.

Kliknij aby zobaczyć obserwacje i prognozy pogody.

Aby zmienić mapę: kliknij na zielony przycisk z czarnym krzyżykiem, aby powiększyć; na zielony przycisk z myślnikiem, aby pomniejszyć; na zielone strzałki, aby przejść do map sąsiednich.


METAR-TAF: